Airfield :
LOGIN :

Register | Disclaimer

   EN    FR    IT 

 










Legend :    VFR   Marginal VFR   IFR   Intensive IFR   Very Intensive IFR
Visi :
Ceiling :
>= 8 km
>= 3000ft
5 to 8 km
1000 to 3000 ft
1500m to 5 km
500 to 1000 ft
800 to 1500m
200 to 500 ft
< 800m
< 200 ft
Symbols :   Thunderstorms  Fog  Heavy snow  Heavy precipitations  Wind > 20 kt
SIGMETs :     Misc.  Thunderstorms  Icing  Turbulence  Mountain Waves  Volcanic Ashes







- Airport Elevation : 138 ft
- IATA code : BIO


LEBB - Bilbao

CURRENT METAR :
  • 231400Z 20006G20KT 150V250 9999 SCT060 13/M01 Q1008 NOSIG

EXPIRED METARs :
  • 231330Z 25010KT 220V290 9999 SCT060 12/M02 Q1009 NOSIG
  • 231300Z 19008KT 150V240 9999 SCT060 12/M00 Q1009 NOSIG
  • 231230Z 19006KT 150V270 9999 SCT058 11/M01 Q1009 NOSIG
  • 231200Z 21008KT 160V280 9999 SCT055 11/M00 Q1009 NOSIG
  • 231130Z 25008G18KT 200V300 9999 FEW052 11/01 Q1009 NOSIG
  • 231100Z 25006KT 160V320 9999 FEW035 11/00 Q1009 NOSIG

TAF TAF LEBB
Valid from the 23 at 12:00 until the 24 at 12:00 UTC


231100Z 2312/2412 23008KT 9999 SCT025 TX14/2315Z TN01/2406Z
PROB40
TEMPO 2312/2315 20015G25KT
PROB40
TEMPO 2312/2318 3000 SHRA TSGS SCT020CB
PROB40
TEMPO 2319/2322 32010KT
No reported NOTAMs for that airfield.



MET'MAP, your aeronautical weather chart ! - Copyright ORBIFLY December 2007 - Disclaimer

ORBIFLY MET'MAP TEAM :

Programming & Development : Alexandra Zaïnal
Concept & Development : Baudouin d'Aumeries
Co-Development & Prog : Marc-Olivier Méhu
Technical & hardware support : Manuel Goepfert

Contact : metmap@orbifly.com




SOURCES & CREDITS :

   NOAA